Time;durP1;ratioP1;P1;durP2;ratioP2;P2;SDS_P1;SDS_P2;PMS_P1;PMS_P2;Temp;Humidity;BMP_temperature;BMP_pressure;BME280_temperature;BME280_humidity;BME280_pressure;Samples;Min_cycle;Max_cycle;Signal;HPM_P1;HPM_P2
2022/12/18 00:01:33;;;;;;;9.93;5.30;;;;;;;;;;4918419;29;20048;-79
2022/12/18 00:04:00;;;;;;;10.43;4.93;;;;;;;;;;4933381;29;20032;-78
2022/12/18 00:06:26;;;;;;;6.10;3.70;;;;;;;;;;4948706;29;20102;-78
2022/12/18 00:08:52;;;;;;;6.77;3.27;;;;;;;;;;4918436;29;20378;-75
2022/12/18 00:11:19;;;;;;;5.80;3.73;;;;;;;;;;4932460;29;20051;-75
2022/12/18 00:13:45;;;;;;;3.63;2.73;;;;;;;;;;4933771;29;20343;-75
2022/12/18 00:16:15;;;;;;;6.40;3.47;;;;;;;;;;4932070;29;20146;-75
2022/12/18 00:18:41;;;;;;;2.90;2.33;;;;;;;;;;4932490;29;20888;-75
2022/12/18 00:21:08;;;;;;;7.97;4.53;;;;;;;;;;4932797;29;20055;-75
2022/12/18 00:23:35;;;;;;;5.40;3.57;;;;;;;;;;4948945;29;20040;-75
2022/12/18 00:26:01;;;;;;;6.33;3.77;;;;;;;;;;4933384;29;20126;-76
2022/12/18 00:28:27;;;;;;;5.57;2.93;;;;;;;;;;4949722;28;20052;-74
2022/12/18 00:31:03;;;;;;;3.97;2.70;;;;;;;;;;4933746;29;20031;-74
2022/12/18 00:33:28;;;;;;;6.60;3.83;;;;;;;;;;4933720;29;20442;-74
2022/12/18 00:35:54;;;;;;;4.30;2.93;;;;;;;;;;4933639;29;20043;-74
2022/12/18 00:38:20;;;;;;;3.97;2.80;;;;;;;;;;4934035;29;20035;-74
2022/12/18 00:40:45;;;;;;;5.20;2.87;;;;;;;;;;4917935;29;20114;-74
2022/12/18 00:43:11;;;;;;;3.10;2.40;;;;;;;;;;4933667;29;20426;-74
2022/12/18 00:45:38;;;;;;;4.10;2.60;;;;;;;;;;4917768;29;20059;-74
2022/12/18 00:48:03;;;;;;;4.57;2.50;;;;;;;;;;4933809;29;20035;-74
2022/12/18 00:50:29;;;;;;;3.87;2.83;;;;;;;;;;4933555;29;20036;-74
2022/12/18 00:52:55;;;;;;;4.40;2.60;;;;;;;;;;4949278;29;20099;-74
2022/12/18 00:55:21;;;;;;;4.63;2.20;;;;;;;;;;4949569;29;20382;-73
2022/12/18 00:57:49;;;;;;;4.07;2.70;;;;;;;;;;4949686;29;20031;-73
2022/12/18 01:00:15;;;;;;;4.50;2.50;;;;;;;;;;4933241;29;20197;-73
2022/12/18 01:02:44;;;;;;;2.23;1.73;;;;;;;;;;4933351;29;20035;-73
2022/12/18 01:05:10;;;;;;;2.50;1.77;;;;;;;;;;4949568;29;20063;-74
2022/12/18 01:07:36;;;;;;;3.70;2.43;;;;;;;;;;4949117;29;20036;-73
2022/12/18 01:10:02;;;;;;;1.53;1.43;;;;;;;;;;4933389;29;20074;-73
2022/12/18 01:12:28;;;;;;;3.87;2.50;;;;;;;;;;4933329;29;20463;-74
2022/12/18 01:14:54;;;;;;;2.43;1.70;;;;;;;;;;4917910;29;20047;-74
2022/12/18 01:17:20;;;;;;;1.80;1.50;;;;;;;;;;4933634;29;20032;-73
2022/12/18 01:19:45;;;;;;;2.57;1.27;;;;;;;;;;4917686;29;20509;-74
2022/12/18 01:22:11;;;;;;;1.40;1.30;;;;;;;;;;4933156;29;20130;-74
2022/12/18 01:24:39;;;;;;;2.50;1.90;;;;;;;;;;4933307;29;20039;-74
2022/12/18 01:27:05;;;;;;;1.87;1.70;;;;;;;;;;4917416;29;20032;-74
2022/12/18 01:29:31;;;;;;;1.60;1.50;;;;;;;;;;4933098;29;20042;-73
2022/12/18 01:31:59;;;;;;;1.60;1.50;;;;;;;;;;4933209;29;20037;-73
2022/12/18 01:34:24;;;;;;;1.43;1.27;;;;;;;;;;4933422;29;20078;-75
2022/12/18 01:36:52;;;;;;;3.40;2.00;;;;;;;;;;4917212;29;20074;-75
2022/12/18 01:39:18;;;;;;;1.33;1.23;;;;;;;;;;4933912;29;20032;-75
2022/12/18 01:44:46;;;;;;;1.53;1.30;;;;;;;;;;4937067;29;20039;-75
2022/12/18 01:47:21;;;;;;;1.77;1.20;;;;;;;;;;4921035;29;20050;-75
2022/12/18 01:49:47;;;;;;;1.00;1.00;;;;;;;;;;4937190;29;20036;-75
2022/12/18 01:52:14;;;;;;;1.00;1.00;;;;;;;;;;4937204;29;20466;-75
2022/12/18 01:54:40;;;;;;;1.90;1.70;;;;;;;;;;4921336;29;20071;-74
2022/12/18 01:57:05;;;;;;;1.30;1.20;;;;;;;;;;4936560;29;20122;-73
2022/12/18 01:59:32;;;;;;;2.00;1.53;;;;;;;;;;4921930;29;20499;-74
2022/12/18 02:01:59;;;;;;;0.80;0.80;;;;;;;;;;4939634;29;20466;-74
2022/12/18 02:04:26;;;;;;;1.83;1.73;;;;;;;;;;4923901;29;20153;-75
2022/12/18 02:06:58;;;;;;;1.20;1.10;;;;;;;;;;4939744;29;20053;-74
2022/12/18 02:09:28;;;;;;;2.50;1.97;;;;;;;;;;4924190;29;20134;-73
2022/12/18 02:11:53;;;;;;;1.30;1.00;;;;;;;;;;4956026;29;20070;-74
2022/12/18 02:14:42;;;;;;;1.73;1.47;;;;;;;;;;4923677;29;20039;-74
2022/12/18 02:17:15;;;;;;;1.30;1.13;;;;;;;;;;4915843;29;20418;-75
2022/12/18 02:20:00;;;;;;;1.13;1.03;;;;;;;;;;4955453;29;20043;-74
2022/12/18 02:22:36;;;;;;;1.10;1.10;;;;;;;;;;4923978;29;20054;-75
2022/12/18 02:25:13;;;;;;;1.07;0.90;;;;;;;;;;4923713;29;20039;-74
2022/12/18 02:27:40;;;;;;;1.63;1.47;;;;;;;;;;4923510;29;20043;-75
2022/12/18 02:30:07;;;;;;;1.20;1.17;;;;;;;;;;4939423;29;20046;-73
2022/12/18 02:32:38;;;;;;;1.47;1.00;;;;;;;;;;4939234;29;20445;-73
2022/12/18 02:35:05;;;;;;;0.93;0.93;;;;;;;;;;4923403;29;20121;-74
2022/12/18 02:37:32;;;;;;;1.40;1.30;;;;;;;;;;4955218;29;20031;-74
2022/12/18 02:40:02;;;;;;;0.80;0.80;;;;;;;;;;4923604;29;20051;-74
2022/12/18 02:42:32;;;;;;;0.60;0.60;;;;;;;;;;4939684;29;20453;-73
2022/12/18 02:44:59;;;;;;;0.83;0.83;;;;;;;;;;4923631;29;20035;-76
2022/12/18 02:47:29;;;;;;;0.70;0.70;;;;;;;;;;4939188;29;20073;-75
2022/12/18 02:50:02;;;;;;;0.90;0.90;;;;;;;;;;4939034;28;20074;-74
2022/12/18 02:52:42;;;;;;;0.77;0.77;;;;;;;;;;4938618;29;20114;-75
2022/12/18 02:55:13;;;;;;;0.80;0.80;;;;;;;;;;4930382;29;20031;-74
2022/12/18 02:57:44;;;;;;;0.60;0.60;;;;;;;;;;4945823;29;20085;-75
2022/12/18 03:00:18;;;;;;;0.80;0.80;;;;;;;;;;4939886;29;20061;-73
2022/12/18 03:03:14;;;;;;;0.60;0.60;;;;;;;;;;4954436;28;20039;-75
2022/12/18 03:05:52;;;;;;;0.50;0.50;;;;;;;;;;4872921;28;20060;-75
2022/12/18 03:08:20;;;;;;;0.50;0.50;;;;;;;;;;4938009;29;20046;-75
2022/12/18 03:10:53;;;;;;;0.60;0.60;;;;;;;;;;4922494;29;20039;-75
2022/12/18 03:13:32;;;;;;;0.70;0.70;;;;;;;;;;4922112;29;20039;-73
2022/12/18 03:15:59;;;;;;;0.70;0.70;;;;;;;;;;4938392;29;20039;-74
2022/12/18 03:18:28;;;;;;;0.50;0.50;;;;;;;;;;4922106;29;20031;-75
2022/12/18 03:20:55;;;;;;;0.60;0.60;;;;;;;;;;4937816;29;20051;-74
2022/12/18 03:23:25;;;;;;;0.50;0.50;;;;;;;;;;4953714;29;20106;-75
2022/12/18 03:25:52;;;;;;;0.50;0.50;;;;;;;;;;4921782;29;20063;-74
2022/12/18 03:28:21;;;;;;;0.60;0.60;;;;;;;;;;4937798;29;20058;-75
2022/12/18 03:30:52;;;;;;;0.57;0.57;;;;;;;;;;4922349;29;20039;-75
2022/12/18 03:33:23;;;;;;;0.60;0.60;;;;;;;;;;4937647;29;20098;-76
2022/12/18 03:35:50;;;;;;;0.50;0.50;;;;;;;;;;4937882;29;20035;-75
2022/12/18 03:38:17;;;;;;;0.50;0.50;;;;;;;;;;4921914;29;20050;-76
2022/12/18 03:41:04;;;;;;;0.50;0.50;;;;;;;;;;4921876;29;20043;-76
2022/12/18 03:43:37;;;;;;;0.50;0.50;;;;;;;;;;4938220;29;20513;-74
2022/12/18 03:46:10;;;;;;;0.50;0.50;;;;;;;;;;4921577;29;20043;-73
2022/12/18 03:48:43;;;;;;;0.50;0.50;;;;;;;;;;4937599;29;20490;-74
2022/12/18 03:51:27;;;;;;;0.47;0.47;;;;;;;;;;4938431;29;20075;-74
2022/12/18 03:54:05;;;;;;;0.70;0.70;;;;;;;;;;4937342;29;20035;-74
2022/12/18 03:56:39;;;;;;;0.50;0.50;;;;;;;;;;4934956;29;20386;-74
2022/12/18 03:59:10;;;;;;;0.53;0.53;;;;;;;;;;4937874;29;20136;-74
2022/12/18 04:01:39;;;;;;;0.50;0.50;;;;;;;;;;4936982;28;20047;-74
2022/12/18 04:04:06;;;;;;;0.50;0.50;;;;;;;;;;4936613;29;20070;-72
2022/12/18 04:06:35;;;;;;;0.80;0.80;;;;;;;;;;4921397;29;20565;-74
2022/12/18 04:09:02;;;;;;;0.60;0.60;;;;;;;;;;4937441;29;20314;-73
2022/12/18 04:11:30;;;;;;;0.50;0.50;;;;;;;;;;4921924;29;20525;-74
2022/12/18 04:13:57;;;;;;;0.50;0.50;;;;;;;;;;4937029;29;20513;-74
2022/12/18 04:16:23;;;;;;;0.50;0.50;;;;;;;;;;4936936;29;20031;-74
2022/12/18 04:18:53;;;;;;;0.50;0.50;;;;;;;;;;4937172;29;20414;-75
2022/12/18 04:21:20;;;;;;;0.50;0.50;;;;;;;;;;4952804;29;20642;-74
2022/12/18 04:23:47;;;;;;;0.40;0.40;;;;;;;;;;4937024;29;20109;-73
2022/12/18 04:26:14;;;;;;;0.50;0.50;;;;;;;;;;4921029;29;20035;-74
2022/12/18 04:28:55;;;;;;;0.50;0.50;;;;;;;;;;4938937;29;20155;-74
2022/12/18 04:31:21;;;;;;;0.50;0.50;;;;;;;;;;4936865;29;20130;-73
2022/12/18 04:33:47;;;;;;;0.50;0.50;;;;;;;;;;4921170;29;20039;-72
2022/12/18 04:36:13;;;;;;;0.50;0.50;;;;;;;;;;4936716;29;20085;-72
2022/12/18 04:38:40;;;;;;;0.50;0.50;;;;;;;;;;4921052;29;20061;-72
2022/12/18 04:41:13;;;;;;;0.50;0.50;;;;;;;;;;4937183;29;20054;-72
2022/12/18 04:43:40;;;;;;;0.50;0.50;;;;;;;;;;4952608;29;20089;-74
2022/12/18 04:46:07;;;;;;;0.50;0.50;;;;;;;;;;4921029;29;20047;-73
2022/12/18 04:48:33;;;;;;;0.50;0.50;;;;;;;;;;4936755;29;20058;-74
2022/12/18 04:50:59;;;;;;;0.50;0.50;;;;;;;;;;4919789;29;20485;-74
2022/12/18 04:53:24;;;;;;;0.50;0.50;;;;;;;;;;4934936;29;20043;-74
2022/12/18 04:56:01;;;;;;;0.50;0.50;;;;;;;;;;4934994;29;20049;-74
2022/12/18 04:58:27;;;;;;;0.50;0.50;;;;;;;;;;4919627;29;20039;-74
2022/12/18 05:00:52;;;;;;;0.50;0.50;;;;;;;;;;4934263;29;20097;-72
2022/12/18 05:03:18;;;;;;;0.50;0.50;;;;;;;;;;4950769;29;20043;-72
2022/12/18 05:05:44;;;;;;;0.50;0.50;;;;;;;;;;4919820;29;20070;-72
2022/12/18 05:08:10;;;;;;;0.50;0.50;;;;;;;;;;4936546;29;20031;-72
2022/12/18 05:10:36;;;;;;;0.50;0.50;;;;;;;;;;4936983;29;20086;-72
2022/12/18 05:13:02;;;;;;;0.50;0.50;;;;;;;;;;4920949;29;20137;-72
2022/12/18 05:15:29;;;;;;;0.60;0.60;;;;;;;;;;4939068;29;20131;-74
2022/12/18 05:17:54;;;;;;;0.50;0.50;;;;;;;;;;4924157;29;20035;-72
2022/12/18 05:20:20;;;;;;;0.63;0.63;;;;;;;;;;4940669;29;20051;-72
2022/12/18 05:22:46;;;;;;;0.50;0.50;;;;;;;;;;4940137;29;20433;-72
2022/12/18 05:25:11;;;;;;;0.50;0.50;;;;;;;;;;4956163;29;20046;-73
2022/12/18 05:27:38;;;;;;;0.50;0.50;;;;;;;;;;4940355;29;20045;-72
2022/12/18 05:30:04;;;;;;;0.50;0.50;;;;;;;;;;4957300;29;20114;-72
2022/12/18 05:32:30;;;;;;;0.50;0.50;;;;;;;;;;4924327;29;20089;-72
2022/12/18 05:34:57;;;;;;;0.50;0.50;;;;;;;;;;4923945;29;20478;-72
2022/12/18 05:37:22;;;;;;;0.50;0.50;;;;;;;;;;4924120;29;20505;-71
2022/12/18 05:39:49;;;;;;;0.40;0.40;;;;;;;;;;4939903;29;20031;-75
2022/12/18 05:42:15;;;;;;;0.50;0.50;;;;;;;;;;4940118;29;20047;-74
2022/12/18 05:44:40;;;;;;;0.50;0.50;;;;;;;;;;4939989;29;20039;-77
2022/12/18 05:47:06;;;;;;;0.50;0.50;;;;;;;;;;4923965;29;20055;-79
2022/12/18 05:49:32;;;;;;;0.50;0.50;;;;;;;;;;4923699;29;20039;-75
2022/12/18 05:51:57;;;;;;;0.50;0.50;;;;;;;;;;4924444;29;20414;-74
2022/12/18 05:54:23;;;;;;;0.60;0.60;;;;;;;;;;4924008;29;20035;-77
2022/12/18 05:56:49;;;;;;;0.50;0.50;;;;;;;;;;4939766;29;20043;-75
2022/12/18 05:59:15;;;;;;;0.50;0.50;;;;;;;;;;4923584;29;20031;-74
2022/12/18 06:01:40;;;;;;;0.50;0.50;;;;;;;;;;4922482;29;20074;-71
2022/12/18 06:04:06;;;;;;;0.57;0.57;;;;;;;;;;4938859;29;20035;-74
2022/12/18 06:06:32;;;;;;;0.50;0.50;;;;;;;;;;4938212;29;20039;-74
2022/12/18 06:08:59;;;;;;;0.60;0.60;;;;;;;;;;4923022;29;20039;-75
2022/12/18 06:11:25;;;;;;;0.50;0.50;;;;;;;;;;4923511;29;20390;-73
2022/12/18 06:13:55;;;;;;;0.50;0.50;;;;;;;;;;4955339;29;20078;-76
2022/12/18 06:16:20;;;;;;;0.60;0.60;;;;;;;;;;4923929;29;20063;-74
2022/12/18 06:18:46;;;;;;;0.50;0.50;;;;;;;;;;4939541;29;20078;-72
2022/12/18 06:21:12;;;;;;;0.50;0.50;;;;;;;;;;4939428;29;20550;-67
2022/12/18 06:23:37;;;;;;;0.50;0.50;;;;;;;;;;4939365;29;20442;-68
2022/12/18 06:26:04;;;;;;;0.50;0.50;;;;;;;;;;4955036;28;20031;-71
2022/12/18 06:28:29;;;;;;;0.50;0.50;;;;;;;;;;4923273;29;20040;-69
2022/12/18 06:30:55;;;;;;;0.50;0.50;;;;;;;;;;4923238;29;20046;-70
2022/12/18 06:33:25;;;;;;;0.50;0.50;;;;;;;;;;4939318;29;20039;-71
2022/12/18 06:35:51;;;;;;;0.50;0.50;;;;;;;;;;4921772;29;20027;-71
2022/12/18 06:38:16;;;;;;;0.60;0.60;;;;;;;;;;4935805;29;20035;-69
2022/12/18 06:40:42;;;;;;;0.50;0.50;;;;;;;;;;4935733;29;20279;-70
2022/12/18 06:43:08;;;;;;;0.50;0.50;;;;;;;;;;4935643;29;20138;-72
2022/12/18 06:45:33;;;;;;;0.50;0.50;;;;;;;;;;4935731;29;20039;-71
2022/12/18 06:47:59;;;;;;;0.50;0.50;;;;;;;;;;4935861;29;20506;-69
2022/12/18 06:50:25;;;;;;;0.50;0.50;;;;;;;;;;4937546;29;20035;-72
2022/12/18 06:52:50;;;;;;;0.53;0.53;;;;;;;;;;4938620;29;20067;-73
2022/12/18 06:55:16;;;;;;;0.50;0.50;;;;;;;;;;4939429;29;20041;-73
2022/12/18 06:57:41;;;;;;;0.50;0.50;;;;;;;;;;4923503;29;20035;-71
2022/12/18 07:00:07;;;;;;;0.60;0.60;;;;;;;;;;4938782;29;20547;-72
2022/12/18 07:02:33;;;;;;;0.50;0.50;;;;;;;;;;4939166;29;20133;-74
2022/12/18 07:04:58;;;;;;;0.50;0.50;;;;;;;;;;4922396;29;20410;-74
2022/12/18 07:07:24;;;;;;;0.50;0.50;;;;;;;;;;4953689;28;20043;-70
2022/12/18 07:09:50;;;;;;;0.50;0.50;;;;;;;;;;4937890;29;20086;-73
2022/12/18 07:12:16;;;;;;;0.50;0.50;;;;;;;;;;4954003;29;20468;-70
2022/12/18 07:14:41;;;;;;;0.60;0.60;;;;;;;;;;4938157;29;20117;-71
2022/12/18 07:17:07;;;;;;;0.50;0.50;;;;;;;;;;4953539;29;20043;-72
2022/12/18 07:19:33;;;;;;;0.53;0.53;;;;;;;;;;4937532;29;20386;-71
2022/12/18 07:21:59;;;;;;;0.50;0.50;;;;;;;;;;4953700;29;20039;-76
2022/12/18 07:24:24;;;;;;;0.50;0.50;;;;;;;;;;4921857;29;20043;-75
2022/12/18 07:26:50;;;;;;;0.50;0.50;;;;;;;;;;4921954;29;20050;-75
2022/12/18 07:29:15;;;;;;;0.60;0.60;;;;;;;;;;4921575;29;20466;-72
2022/12/18 07:31:41;;;;;;;0.50;0.50;;;;;;;;;;4922017;29;20194;-75
2022/12/18 07:34:14;;;;;;;0.50;0.50;;;;;;;;;;4921570;29;20039;-74
2022/12/18 07:36:40;;;;;;;0.50;0.50;;;;;;;;;;4920763;29;20042;-74
2022/12/18 07:39:05;;;;;;;0.43;0.43;;;;;;;;;;4937205;29;20924;-74
2022/12/18 07:41:31;;;;;;;0.50;0.50;;;;;;;;;;4937284;29;20512;-74
2022/12/18 07:44:05;;;;;;;0.50;0.50;;;;;;;;;;4939438;29;20043;-74
2022/12/18 07:46:31;;;;;;;0.50;0.50;;;;;;;;;;4957025;29;20134;-74
2022/12/18 07:48:56;;;;;;;0.57;0.57;;;;;;;;;;4940826;29;20042;-74
2022/12/18 07:51:22;;;;;;;0.60;0.60;;;;;;;;;;4937946;29;20110;-73
2022/12/18 07:53:47;;;;;;;0.50;0.50;;;;;;;;;;4937221;29;20047;-74
2022/12/18 07:56:13;;;;;;;0.60;0.60;;;;;;;;;;4921194;29;20101;-73
2022/12/18 07:58:39;;;;;;;0.50;0.50;;;;;;;;;;4921267;29;20351;-75
2022/12/18 08:01:09;;;;;;;0.50;0.50;;;;;;;;;;4921184;29;20415;-74
2022/12/18 08:03:35;;;;;;;0.50;0.50;;;;;;;;;;4953378;29;20043;-74
2022/12/18 08:06:01;;;;;;;0.50;0.50;;;;;;;;;;4891439;29;1349950;-74
2022/12/18 08:08:27;;;;;;;0.50;0.50;;;;;;;;;;4937500;29;20032;-74
2022/12/18 08:10:53;;;;;;;0.50;0.50;;;;;;;;;;4921775;29;20125;-73
2022/12/18 08:13:18;;;;;;;0.50;0.50;;;;;;;;;;4953607;29;20125;-73
2022/12/18 08:15:44;;;;;;;0.50;0.50;;;;;;;;;;4921585;29;20455;-75
2022/12/18 08:18:10;;;;;;;0.53;0.53;;;;;;;;;;4937343;29;20031;-75
2022/12/18 08:20:35;;;;;;;0.50;0.50;;;;;;;;;;4921536;29;20046;-75
2022/12/18 08:23:01;;;;;;;0.50;0.50;;;;;;;;;;4937508;29;20039;-74
2022/12/18 08:25:26;;;;;;;0.50;0.50;;;;;;;;;;4921555;29;20073;-75
2022/12/18 08:27:52;;;;;;;0.53;0.53;;;;;;;;;;4921343;29;20489;-75
2022/12/18 08:30:17;;;;;;;0.47;0.47;;;;;;;;;;4921821;29;20114;-79
2022/12/18 08:32:43;;;;;;;0.50;0.50;;;;;;;;;;4953355;29;20373;-77
2022/12/18 08:35:11;;;;;;;0.50;0.50;;;;;;;;;;4921287;29;20035;-72
2022/12/18 08:37:37;;;;;;;0.50;0.50;;;;;;;;;;4954136;29;20039;-76
2022/12/18 08:40:03;;;;;;;0.40;0.40;;;;;;;;;;4958466;29;20062;-77
2022/12/18 08:45:17;;;;;;;0.50;0.50;;;;;;;;;;4937510;29;20054;-76
2022/12/18 08:47:43;;;;;;;0.50;0.50;;;;;;;;;;4921240;29;20505;-75
2022/12/18 08:50:09;;;;;;;0.40;0.40;;;;;;;;;;4937172;29;20385;-77
2022/12/18 08:52:36;;;;;;;0.50;0.50;;;;;;;;;;4954652;29;20043;-79
2022/12/18 08:55:02;;;;;;;0.50;0.50;;;;;;;;;;4954082;29;20490;-75
2022/12/18 08:57:28;;;;;;;0.40;0.40;;;;;;;;;;4952948;29;20426;-72
2022/12/18 08:59:54;;;;;;;0.50;0.50;;;;;;;;;;4936692;29;20039;-75
2022/12/18 09:02:20;;;;;;;0.50;0.50;;;;;;;;;;4953279;29;20059;-73
2022/12/18 09:04:47;;;;;;;0.50;0.50;;;;;;;;;;4934737;29;20528;-76
2022/12/18 09:07:13;;;;;;;0.60;0.60;;;;;;;;;;4937053;29;20039;-74
2022/12/18 09:09:38;;;;;;;0.57;0.57;;;;;;;;;;4921401;29;20520;-78
2022/12/18 09:12:04;;;;;;;0.50;0.50;;;;;;;;;;4937226;29;20454;-78
2022/12/18 09:14:29;;;;;;;0.50;0.50;;;;;;;;;;4953026;29;20097;-77
2022/12/18 09:16:55;;;;;;;0.50;0.50;;;;;;;;;;4953671;29;20128;-74
2022/12/18 09:19:20;;;;;;;0.50;0.50;;;;;;;;;;4921749;29;20045;-74
2022/12/18 09:21:48;;;;;;;0.40;0.40;;;;;;;;;;4954235;28;20050;-74
2022/12/18 09:24:14;;;;;;;0.50;0.50;;;;;;;;;;4921552;29;20042;-74
2022/12/18 09:26:42;;;;;;;0.50;0.50;;;;;;;;;;4937155;29;20434;-73
2022/12/18 09:29:08;;;;;;;0.57;0.57;;;;;;;;;;4954020;28;20062;-79
2022/12/18 09:31:37;;;;;;;0.50;0.50;;;;;;;;;;4923175;29;20047;-79
2022/12/18 09:34:07;;;;;;;0.50;0.50;;;;;;;;;;4923536;29;20055;-76
2022/12/18 09:36:33;;;;;;;0.50;0.50;;;;;;;;;;4954346;29;20517;-77
2022/12/18 09:38:58;;;;;;;0.57;0.57;;;;;;;;;;4920963;29;20039;-78
2022/12/18 09:41:43;;;;;;;0.60;0.60;;;;;;;;;;4937828;29;20054;-74
2022/12/18 09:44:13;;;;;;;0.50;0.50;;;;;;;;;;4952370;29;20027;-79
2022/12/18 09:46:43;;;;;;;0.50;0.50;;;;;;;;;;4953142;29;20174;-76
2022/12/18 09:49:12;;;;;;;0.53;0.53;;;;;;;;;;4920916;29;20040;-77
2022/12/18 09:51:57;;;;;;;0.50;0.50;;;;;;;;;;4921368;29;20035;-76
2022/12/18 09:54:30;;;;;;;0.50;0.50;;;;;;;;;;4936379;29;20035;-73
2022/12/18 09:56:56;;;;;;;0.50;0.50;;;;;;;;;;4936178;29;20294;-74
2022/12/18 09:59:33;;;;;;;0.50;0.50;;;;;;;;;;4936031;29;20130;-74
2022/12/18 10:01:59;;;;;;;0.50;0.50;;;;;;;;;;4937130;29;20054;-73
2022/12/18 10:04:31;;;;;;;0.60;0.60;;;;;;;;;;4937825;29;20051;-75
2022/12/18 10:07:02;;;;;;;1.00;0.67;;;;;;;;;;4934223;29;20031;-72
2022/12/18 10:09:34;;;;;;;0.50;0.50;;;;;;;;;;4952825;29;20582;-74
2022/12/18 10:12:19;;;;;;;0.50;0.50;;;;;;;;;;4923263;28;20038;-75
2022/12/18 10:14:56;;;;;;;0.53;0.53;;;;;;;;;;4939316;29;20035;-73
2022/12/18 10:17:28;;;;;;;0.60;0.60;;;;;;;;;;4919891;29;20067;-73
2022/12/18 10:20:13;;;;;;;0.50;0.50;;;;;;;;;;4938309;29;20035;-72
2022/12/18 10:22:46;;;;;;;0.53;0.53;;;;;;;;;;4922191;29;20098;-74
2022/12/18 10:25:12;;;;;;;0.50;0.50;;;;;;;;;;4953617;29;20043;-74
2022/12/18 10:27:38;;;;;;;0.60;0.60;;;;;;;;;;4922908;29;20090;-73
2022/12/18 10:30:13;;;;;;;0.50;0.50;;;;;;;;;;4923272;29;20031;-74
2022/12/18 10:32:39;;;;;;;0.50;0.50;;;;;;;;;;4954352;29;20043;-75
2022/12/18 10:35:11;;;;;;;0.50;0.50;;;;;;;;;;4939281;29;20122;-74
2022/12/18 10:37:58;;;;;;;0.50;0.50;;;;;;;;;;4938999;29;20122;-75
2022/12/18 10:40:24;;;;;;;0.50;0.50;;;;;;;;;;4937210;29;20427;-72
2022/12/18 10:43:03;;;;;;;0.60;0.60;;;;;;;;;;4938355;29;20031;-74
2022/12/18 10:45:28;;;;;;;0.60;0.60;;;;;;;;;;4953920;29;20034;-75
2022/12/18 10:47:54;;;;;;;0.50;0.50;;;;;;;;;;4922066;29;20035;-71
2022/12/18 10:50:25;;;;;;;0.50;0.50;;;;;;;;;;4922281;29;20504;-75
2022/12/18 10:53:00;;;;;;;0.50;0.50;;;;;;;;;;4922290;29;20090;-76
2022/12/18 10:55:31;;;;;;;0.57;0.57;;;;;;;;;;4937945;29;20074;-75
2022/12/18 10:57:56;;;;;;;;;;;;;;;;;;4938470;29;21040;-75
2022/12/18 11:00:27;;;;;;;0.40;0.40;;;;;;;;;;4971319;28;20371;-76
2022/12/18 11:02:53;;;;;;;0.50;0.50;;;;;;;;;;4937689;29;20042;-75
2022/12/18 11:05:23;;;;;;;0.50;0.50;;;;;;;;;;4921371;29;20047;-74
2022/12/18 11:07:49;;;;;;;0.50;0.50;;;;;;;;;;4921350;29;20019;-74
2022/12/18 11:10:19;;;;;;;0.50;0.50;;;;;;;;;;4933730;29;20142;-75
2022/12/18 11:12:45;;;;;;;0.47;0.47;;;;;;;;;;4918073;29;20512;-76
2022/12/18 11:15:16;;;;;;;0.60;0.60;;;;;;;;;;4921072;29;20041;-75
2022/12/18 11:17:41;;;;;;;0.50;0.50;;;;;;;;;;4921092;29;20098;-75
2022/12/18 11:20:20;;;;;;;0.63;0.63;;;;;;;;;;4937028;29;20508;-75
2022/12/18 11:22:55;;;;;;;0.70;0.70;;;;;;;;;;4951321;29;20043;-75
2022/12/18 11:25:21;;;;;;;0.50;0.50;;;;;;;;;;4921114;29;20085;-75
2022/12/18 11:27:49;;;;;;;0.60;0.60;;;;;;;;;;4920856;29;20038;-75
2022/12/18 11:30:21;;;;;;;0.50;0.50;;;;;;;;;;4952574;29;20093;-74
2022/12/18 11:33:06;;;;;;;0.50;0.50;;;;;;;;;;4934570;29;20473;-75
2022/12/18 11:35:44;;;;;;;0.50;0.50;;;;;;;;;;4951121;29;20042;-75
2022/12/18 11:38:26;;;;;;;0.60;0.60;;;;;;;;;;4934831;29;20039;-75
2022/12/18 11:40:58;;;;;;;0.50;0.50;;;;;;;;;;4934515;29;20059;-74
2022/12/18 11:43:44;;;;;;;0.50;0.50;;;;;;;;;;4927057;29;20486;-76
2022/12/18 11:46:15;;;;;;;0.50;0.50;;;;;;;;;;4918948;29;20066;-76
2022/12/18 11:49:03;;;;;;;0.50;0.50;;;;;;;;;;4921082;29;20039;-73
2022/12/18 11:51:34;;;;;;;0.47;0.47;;;;;;;;;;4920708;29;20066;-72
2022/12/18 11:54:01;;;;;;;0.50;0.50;;;;;;;;;;4936936;29;20042;-74
2022/12/18 11:56:27;;;;;;;0.50;0.50;;;;;;;;;;4921163;29;20049;-71
2022/12/18 11:58:52;;;;;;;0.50;0.50;;;;;;;;;;4920812;29;20122;-74
2022/12/18 12:01:47;;;;;;;0.60;0.60;;;;;;;;;;4920414;29;20427;-75
2022/12/18 12:04:15;;;;;;;0.50;0.50;;;;;;;;;;4885407;28;20152;-74
2022/12/18 12:07:06;;;;;;;0.50;0.50;;;;;;;;;;4938885;29;20063;-74
2022/12/18 12:10:05;;;;;;;0.57;0.57;;;;;;;;;;4951926;29;20097;-73
2022/12/18 12:12:45;;;;;;;0.50;0.50;;;;;;;;;;4931996;29;20035;-73
2022/12/18 12:15:29;;;;;;;0.50;0.50;;;;;;;;;;4920198;29;20186;-73
2022/12/18 12:18:07;;;;;;;0.60;0.60;;;;;;;;;;4936258;29;20031;-70
2022/12/18 12:20:32;;;;;;;0.50;0.50;;;;;;;;;;4935779;29;20134;-73
2022/12/18 12:22:58;;;;;;;0.50;0.50;;;;;;;;;;4920132;28;20141;-73
2022/12/18 12:25:40;;;;;;;0.50;0.50;;;;;;;;;;4920757;29;20042;-74
2022/12/18 12:28:12;;;;;;;0.50;0.50;;;;;;;;;;4935897;29;20031;-73
2022/12/18 12:30:57;;;;;;;0.57;0.57;;;;;;;;;;4917960;29;20038;-73
2022/12/18 12:33:35;;;;;;;0.50;0.50;;;;;;;;;;4938179;29;20067;-71
2022/12/18 12:36:19;;;;;;;0.50;0.50;;;;;;;;;;4941006;29;20046;-73
2022/12/18 12:38:49;;;;;;;0.50;0.50;;;;;;;;;;4941931;29;20026;-73
2022/12/18 12:44:05;;;;;;;0.50;0.50;;;;;;;;;;4934803;29;20094;-74
2022/12/18 12:46:33;;;;;;;0.50;0.50;;;;;;;;;;4920075;29;20359;-73
2022/12/18 12:49:01;;;;;;;0.50;0.50;;;;;;;;;;4919739;29;20042;-73
2022/12/18 12:51:32;;;;;;;0.60;0.60;;;;;;;;;;4919874;29;20755;-74
2022/12/18 12:53:59;;;;;;;0.50;0.50;;;;;;;;;;4950147;29;20047;-78
2022/12/18 12:56:27;;;;;;;0.50;0.50;;;;;;;;;;4953227;29;20066;-74
2022/12/18 12:59:02;;;;;;;0.50;0.50;;;;;;;;;;4953431;29;20061;-73
2022/12/18 13:01:31;;;;;;;0.50;0.50;;;;;;;;;;4936910;29;20044;-74
2022/12/18 13:04:02;;;;;;;0.57;0.57;;;;;;;;;;4936647;29;20043;-73
2022/12/18 13:06:40;;;;;;;0.40;0.40;;;;;;;;;;4936867;29;20031;-74
2022/12/18 13:09:06;;;;;;;0.50;0.50;;;;;;;;;;4935608;29;20450;-75
2022/12/18 13:14:27;;;;;;;0.50;0.50;;;;;;;;;;4935437;29;20126;-74
2022/12/18 13:17:13;;;;;;;0.50;0.50;;;;;;;;;;4951710;28;20040;-73
2022/12/18 13:19:39;;;;;;;0.50;0.50;;;;;;;;;;4951347;29;20413;-74
2022/12/18 13:22:04;;;;;;;0.50;0.50;;;;;;;;;;4935251;29;20039;-76
2022/12/18 13:24:31;;;;;;;0.50;0.50;;;;;;;;;;4935458;29;20031;-75
2022/12/18 13:26:56;;;;;;;0.40;0.40;;;;;;;;;;4951198;29;20445;-70
2022/12/18 13:29:41;;;;;;;0.60;0.60;;;;;;;;;;4935457;29;20454;-73
2022/12/18 13:32:19;;;;;;;0.50;0.50;;;;;;;;;;4933276;29;20043;-74
2022/12/18 13:34:45;;;;;;;0.47;0.47;;;;;;;;;;4934946;29;20464;-74
2022/12/18 13:37:37;;;;;;;0.50;0.50;;;;;;;;;;4922599;29;20046;-72
2022/12/18 13:40:23;;;;;;;0.60;0.60;;;;;;;;;;4937670;29;20677;-73
2022/12/18 13:45:44;;;;;;;0.50;0.50;;;;;;;;;;4936932;29;20039;-73
2022/12/18 13:48:18;;;;;;;0.50;0.50;;;;;;;;;;4936521;29;20043;-74
2022/12/18 13:50:48;;;;;;;0.50;0.50;;;;;;;;;;4954577;29;20134;-73
2022/12/18 13:53:21;;;;;;;0.40;0.40;;;;;;;;;;4938463;29;20046;-73
2022/12/18 13:55:49;;;;;;;0.60;0.60;;;;;;;;;;4955629;28;20122;-74
2022/12/18 13:58:15;;;;;;;0.60;0.60;;;;;;;;;;4922793;29;20125;-77
2022/12/18 14:00:44;;;;;;;0.50;0.50;;;;;;;;;;4939065;29;20253;-74
2022/12/18 14:03:36;;;;;;;0.50;0.50;;;;;;;;;;4936652;29;20525;-74
2022/12/18 14:06:04;;;;;;;0.50;0.50;;;;;;;;;;4935166;29;20043;-73
2022/12/18 14:08:36;;;;;;;0.50;0.50;;;;;;;;;;4936151;29;20118;-72
2022/12/18 14:11:04;;;;;;;0.50;0.50;;;;;;;;;;4932462;29;20039;-72
2022/12/18 14:13:32;;;;;;;0.60;0.60;;;;;;;;;;4919952;29;20470;-72
2022/12/18 14:16:00;;;;;;;0.50;0.50;;;;;;;;;;4936130;29;20032;-72
2022/12/18 14:18:42;;;;;;;0.57;0.57;;;;;;;;;;4921843;29;20321;-72
2022/12/18 14:21:15;;;;;;;0.57;0.57;;;;;;;;;;4938035;29;20047;-73
2022/12/18 14:23:41;;;;;;;0.50;0.50;;;;;;;;;;4937796;29;20075;-72
2022/12/18 14:26:23;;;;;;;0.50;0.50;;;;;;;;;;4921617;29;20485;-72
2022/12/18 14:28:48;;;;;;;0.50;0.50;;;;;;;;;;4921824;29;20054;-72
2022/12/18 14:31:19;;;;;;;0.50;0.50;;;;;;;;;;4937649;29;20175;-73
2022/12/18 14:33:45;;;;;;;0.50;0.50;;;;;;;;;;4921962;29;20050;-72
2022/12/18 14:36:16;;;;;;;0.50;0.50;;;;;;;;;;4953967;29;20039;-72
2022/12/18 14:38:42;;;;;;;0.50;0.50;;;;;;;;;;4922573;29;20039;-72
2022/12/18 14:41:15;;;;;;;0.40;0.40;;;;;;;;;;4938544;29;20070;-72
2022/12/18 14:43:42;;;;;;;0.50;0.50;;;;;;;;;;4923061;29;20038;-72
2022/12/18 14:46:27;;;;;;;0.60;0.60;;;;;;;;;;4938934;29;20138;-72
2022/12/18 14:48:53;;;;;;;0.60;0.60;;;;;;;;;;4938544;29;20039;-72
2022/12/18 14:51:19;;;;;;;0.53;0.53;;;;;;;;;;4938169;29;20035;-72
2022/12/18 14:53:47;;;;;;;0.50;0.50;;;;;;;;;;4923089;29;20071;-72
2022/12/18 14:56:15;;;;;;;0.50;0.50;;;;;;;;;;4955523;28;20043;-72
2022/12/18 14:58:45;;;;;;;0.50;0.50;;;;;;;;;;4938108;29;20043;-72
2022/12/18 15:01:17;;;;;;;0.60;0.60;;;;;;;;;;4937807;29;20047;-73
2022/12/18 15:03:43;;;;;;;0.50;0.50;;;;;;;;;;4922854;29;20035;-72
2022/12/18 15:06:16;;;;;;;0.50;0.50;;;;;;;;;;4921962;29;20059;-73
2022/12/18 15:08:44;;;;;;;0.50;0.50;;;;;;;;;;4964477;28;20106;-73
2022/12/18 15:11:27;;;;;;;0.50;0.50;;;;;;;;;;4920154;29;20474;-72